sensor_id;sensor_type;location;lat;lon;timestamp;P1;durP1;ratioP1;P2;durP2;ratioP2
75542;SDS011;64129;53.508;10.476;2023-08-30T00:02:15;2.88;;;1.63;;
75542;SDS011;64129;53.508;10.476;2023-08-30T00:04:42;2.28;;;2.08;;
75542;SDS011;64129;53.508;10.476;2023-08-30T00:07:08;3.45;;;2.38;;
75542;SDS011;64129;53.508;10.476;2023-08-30T00:09:36;4.20;;;2.13;;
75542;SDS011;64129;53.508;10.476;2023-08-30T00:12:03;2.70;;;1.65;;
75542;SDS011;64129;53.508;10.476;2023-08-30T00:14:30;2.97;;;1.85;;
75542;SDS011;64129;53.508;10.476;2023-08-30T00:16:56;4.05;;;1.90;;
75542;SDS011;64129;53.508;10.476;2023-08-30T00:19:23;4.18;;;1.77;;
75542;SDS011;64129;53.508;10.476;2023-08-30T00:21:49;1.98;;;1.67;;
75542;SDS011;64129;53.508;10.476;2023-08-30T00:24:16;1.65;;;1.38;;
75542;SDS011;64129;53.508;10.476;2023-08-30T00:26:42;2.42;;;1.60;;
75542;SDS011;64129;53.508;10.476;2023-08-30T00:29:09;2.00;;;1.67;;
75542;SDS011;64129;53.508;10.476;2023-08-30T00:31:37;2.20;;;2.00;;
75542;SDS011;64129;53.508;10.476;2023-08-30T00:34:03;2.35;;;1.77;;
75542;SDS011;64129;53.508;10.476;2023-08-30T00:36:30;2.10;;;1.55;;
75542;SDS011;64129;53.508;10.476;2023-08-30T00:38:57;1.95;;;1.58;;
75542;SDS011;64129;53.508;10.476;2023-08-30T00:41:24;2.38;;;1.65;;
75542;SDS011;64129;53.508;10.476;2023-08-30T00:43:50;3.33;;;1.88;;
75542;SDS011;64129;53.508;10.476;2023-08-30T00:46:17;4.20;;;2.00;;
75542;SDS011;64129;53.508;10.476;2023-08-30T00:48:44;2.38;;;1.70;;
75542;SDS011;64129;53.508;10.476;2023-08-30T00:51:11;2.03;;;1.73;;
75542;SDS011;64129;53.508;10.476;2023-08-30T00:53:38;1.98;;;1.70;;
75542;SDS011;64129;53.508;10.476;2023-08-30T00:56:04;2.75;;;1.80;;
75542;SDS011;64129;53.508;10.476;2023-08-30T00:58:31;2.50;;;1.63;;
75542;SDS011;64129;53.508;10.476;2023-08-30T01:00:58;3.90;;;2.05;;
75542;SDS011;64129;53.508;10.476;2023-08-30T01:03:25;3.83;;;1.65;;
75542;SDS011;64129;53.508;10.476;2023-08-30T01:05:54;1.98;;;1.73;;
75542;SDS011;64129;53.508;10.476;2023-08-30T01:08:20;2.78;;;1.80;;
75542;SDS011;64129;53.508;10.476;2023-08-30T01:10:51;2.10;;;1.90;;
75542;SDS011;64129;53.508;10.476;2023-08-30T01:13:24;2.55;;;1.65;;
75542;SDS011;64129;53.508;10.476;2023-08-30T01:15:54;1.95;;;1.40;;
75542;SDS011;64129;53.508;10.476;2023-08-30T01:18:22;2.10;;;1.90;;
75542;SDS011;64129;53.508;10.476;2023-08-30T01:20:52;3.50;;;1.88;;
75542;SDS011;64129;53.508;10.476;2023-08-30T01:23:26;2.47;;;1.55;;
75542;SDS011;64129;53.508;10.476;2023-08-30T01:26:26;1.70;;;1.60;;
75542;SDS011;64129;53.508;10.476;2023-08-30T01:28:54;2.00;;;1.58;;
75542;SDS011;64129;53.508;10.476;2023-08-30T01:31:26;3.20;;;1.52;;
75542;SDS011;64129;53.508;10.476;2023-08-30T01:33:53;1.70;;;1.60;;
75542;SDS011;64129;53.508;10.476;2023-08-30T01:36:22;2.75;;;1.58;;
75542;SDS011;64129;53.508;10.476;2023-08-30T01:38:48;1.73;;;1.60;;
75542;SDS011;64129;53.508;10.476;2023-08-30T01:41:17;1.90;;;1.40;;
75542;SDS011;64129;53.508;10.476;2023-08-30T01:43:45;1.60;;;1.50;;
75542;SDS011;64129;53.508;10.476;2023-08-30T01:46:13;1.50;;;1.38;;
75542;SDS011;64129;53.508;10.476;2023-08-30T01:48:43;2.05;;;1.30;;
75542;SDS011;64129;53.508;10.476;2023-08-30T01:51:10;1.45;;;1.35;;
75542;SDS011;64129;53.508;10.476;2023-08-30T01:53:37;2.65;;;1.27;;
75542;SDS011;64129;53.508;10.476;2023-08-30T01:56:06;1.85;;;1.30;;
75542;SDS011;64129;53.508;10.476;2023-08-30T01:58:33;2.22;;;1.63;;
75542;SDS011;64129;53.508;10.476;2023-08-30T02:01:00;1.90;;;1.65;;
75542;SDS011;64129;53.508;10.476;2023-08-30T02:03:27;2.15;;;1.75;;
75542;SDS011;64129;53.508;10.476;2023-08-30T02:09:09;1.77;;;1.42;;
75542;SDS011;64129;53.508;10.476;2023-08-30T02:11:37;1.50;;;1.40;;
75542;SDS011;64129;53.508;10.476;2023-08-30T02:14:07;3.05;;;1.75;;
75542;SDS011;64129;53.508;10.476;2023-08-30T02:16:37;3.97;;;1.73;;
75542;SDS011;64129;53.508;10.476;2023-08-30T02:19:06;1.50;;;1.40;;
75542;SDS011;64129;53.508;10.476;2023-08-30T02:21:34;1.45;;;1.35;;
75542;SDS011;64129;53.508;10.476;2023-08-30T02:24:00;3.13;;;1.65;;
75542;SDS011;64129;53.508;10.476;2023-08-30T02:26:29;1.80;;;1.52;;
75542;SDS011;64129;53.508;10.476;2023-08-30T02:28:56;2.78;;;1.80;;
75542;SDS011;64129;53.508;10.476;2023-08-30T02:31:22;2.30;;;1.65;;
75542;SDS011;64129;53.508;10.476;2023-08-30T02:33:49;2.42;;;1.30;;
75542;SDS011;64129;53.508;10.476;2023-08-30T02:36:15;1.88;;;1.48;;
75542;SDS011;64129;53.508;10.476;2023-08-30T02:38:42;3.05;;;2.08;;
75542;SDS011;64129;53.508;10.476;2023-08-30T02:41:08;1.88;;;1.50;;
75542;SDS011;64129;53.508;10.476;2023-08-30T02:43:36;4.88;;;1.35;;
75542;SDS011;64129;53.508;10.476;2023-08-30T02:46:03;1.25;;;1.15;;
75542;SDS011;64129;53.508;10.476;2023-08-30T02:48:31;1.75;;;1.63;;
75542;SDS011;64129;53.508;10.476;2023-08-30T02:50:58;2.53;;;1.50;;
75542;SDS011;64129;53.508;10.476;2023-08-30T02:53:25;1.73;;;1.42;;
75542;SDS011;64129;53.508;10.476;2023-08-30T02:55:51;3.10;;;1.60;;
75542;SDS011;64129;53.508;10.476;2023-08-30T02:58:21;2.05;;;1.63;;
75542;SDS011;64129;53.508;10.476;2023-08-30T03:00:48;1.48;;;1.38;;
75542;SDS011;64129;53.508;10.476;2023-08-30T03:03:15;2.58;;;1.58;;
75542;SDS011;64129;53.508;10.476;2023-08-30T03:05:42;1.55;;;1.45;;
75542;SDS011;64129;53.508;10.476;2023-08-30T03:08:08;1.52;;;1.40;;
75542;SDS011;64129;53.508;10.476;2023-08-30T03:10:35;1.77;;;1.38;;
75542;SDS011;64129;53.508;10.476;2023-08-30T03:13:02;1.40;;;1.30;;
75542;SDS011;64129;53.508;10.476;2023-08-30T03:15:31;2.03;;;1.55;;
75542;SDS011;64129;53.508;10.476;2023-08-30T03:17:59;2.13;;;1.77;;
75542;SDS011;64129;53.508;10.476;2023-08-30T03:20:26;1.65;;;1.55;;
75542;SDS011;64129;53.508;10.476;2023-08-30T03:22:57;2.13;;;1.98;;
75542;SDS011;64129;53.508;10.476;2023-08-30T03:25:24;2.33;;;1.83;;
75542;SDS011;64129;53.508;10.476;2023-08-30T03:27:51;2.20;;;1.50;;
75542;SDS011;64129;53.508;10.476;2023-08-30T03:30:17;2.17;;;1.58;;
75542;SDS011;64129;53.508;10.476;2023-08-30T03:32:44;2.92;;;1.88;;
75542;SDS011;64129;53.508;10.476;2023-08-30T03:35:11;2.17;;;1.80;;
75542;SDS011;64129;53.508;10.476;2023-08-30T03:37:38;2.25;;;1.73;;
75542;SDS011;64129;53.508;10.476;2023-08-30T03:40:04;3.13;;;1.73;;
75542;SDS011;64129;53.508;10.476;2023-08-30T03:42:32;2.28;;;2.08;;
75542;SDS011;64129;53.508;10.476;2023-08-30T03:44:59;2.67;;;1.77;;
75542;SDS011;64129;53.508;10.476;2023-08-30T03:47:26;2.58;;;2.35;;
75542;SDS011;64129;53.508;10.476;2023-08-30T03:49:52;4.25;;;2.35;;
75542;SDS011;64129;53.508;10.476;2023-08-30T03:52:19;3.45;;;2.50;;
75542;SDS011;64129;53.508;10.476;2023-08-30T03:54:45;3.03;;;2.70;;
75542;SDS011;64129;53.508;10.476;2023-08-30T03:57:13;3.70;;;2.85;;
75542;SDS011;64129;53.508;10.476;2023-08-30T03:59:39;3.13;;;2.42;;
75542;SDS011;64129;53.508;10.476;2023-08-30T04:02:06;2.90;;;1.92;;
75542;SDS011;64129;53.508;10.476;2023-08-30T04:04:32;2.40;;;1.90;;
75542;SDS011;64129;53.508;10.476;2023-08-30T04:06:59;3.90;;;2.28;;
75542;SDS011;64129;53.508;10.476;2023-08-30T04:09:26;4.90;;;3.08;;
75542;SDS011;64129;53.508;10.476;2023-08-30T04:11:52;2.92;;;2.40;;
75542;SDS011;64129;53.508;10.476;2023-08-30T04:14:19;3.63;;;2.55;;
75542;SDS011;64129;53.508;10.476;2023-08-30T04:16:47;2.67;;;2.30;;
75542;SDS011;64129;53.508;10.476;2023-08-30T04:19:13;2.67;;;2.33;;
75542;SDS011;64129;53.508;10.476;2023-08-30T04:21:40;3.78;;;2.30;;
75542;SDS011;64129;53.508;10.476;2023-08-30T04:24:06;2.80;;;2.50;;
75542;SDS011;64129;53.508;10.476;2023-08-30T04:26:33;4.35;;;2.55;;
75542;SDS011;64129;53.508;10.476;2023-08-30T04:28:59;3.63;;;2.65;;
75542;SDS011;64129;53.508;10.476;2023-08-30T04:31:26;3.08;;;2.50;;
75542;SDS011;64129;53.508;10.476;2023-08-30T04:33:53;3.67;;;2.70;;
75542;SDS011;64129;53.508;10.476;2023-08-30T04:36:21;3.42;;;2.72;;
75542;SDS011;64129;53.508;10.476;2023-08-30T04:38:48;3.70;;;2.75;;
75542;SDS011;64129;53.508;10.476;2023-08-30T04:43:49;2.97;;;2.50;;
75542;SDS011;64129;53.508;10.476;2023-08-30T04:46:15;7.32;;;5.13;;
75542;SDS011;64129;53.508;10.476;2023-08-30T04:48:42;5.50;;;3.90;;
75542;SDS011;64129;53.508;10.476;2023-08-30T04:51:08;4.57;;;3.15;;
75542;SDS011;64129;53.508;10.476;2023-08-30T04:53:35;5.85;;;3.33;;
75542;SDS011;64129;53.508;10.476;2023-08-30T04:56:09;4.93;;;3.63;;
75542;SDS011;64129;53.508;10.476;2023-08-30T04:58:37;4.57;;;3.40;;
75542;SDS011;64129;53.508;10.476;2023-08-30T05:01:05;4.47;;;3.55;;
75542;SDS011;64129;53.508;10.476;2023-08-30T05:03:34;4.15;;;3.70;;
75542;SDS011;64129;53.508;10.476;2023-08-30T05:06:01;5.93;;;3.63;;
75542;SDS011;64129;53.508;10.476;2023-08-30T05:08:27;4.60;;;3.63;;
75542;SDS011;64129;53.508;10.476;2023-08-30T05:10:54;4.22;;;3.80;;
75542;SDS011;64129;53.508;10.476;2023-08-30T05:13:21;7.15;;;3.97;;
75542;SDS011;64129;53.508;10.476;2023-08-30T05:15:47;6.15;;;4.60;;
75542;SDS011;64129;53.508;10.476;2023-08-30T05:18:14;6.38;;;4.38;;
75542;SDS011;64129;53.508;10.476;2023-08-30T05:20:40;7.93;;;5.35;;
75542;SDS011;64129;53.508;10.476;2023-08-30T05:23:07;8.85;;;6.10;;
75542;SDS011;64129;53.508;10.476;2023-08-30T05:25:34;7.22;;;5.35;;
75542;SDS011;64129;53.508;10.476;2023-08-30T05:28:01;7.28;;;5.38;;
75542;SDS011;64129;53.508;10.476;2023-08-30T05:30:28;5.40;;;4.72;;
75542;SDS011;64129;53.508;10.476;2023-08-30T05:32:57;7.15;;;4.65;;
75542;SDS011;64129;53.508;10.476;2023-08-30T05:35:43;6.45;;;5.10;;
75542;SDS011;64129;53.508;10.476;2023-08-30T05:38:30;8.57;;;6.40;;
75542;SDS011;64129;53.508;10.476;2023-08-30T05:41:05;7.95;;;5.68;;
75542;SDS011;64129;53.508;10.476;2023-08-30T05:43:32;8.73;;;6.15;;
75542;SDS011;64129;53.508;10.476;2023-08-30T05:45:58;9.95;;;6.32;;
75542;SDS011;64129;53.508;10.476;2023-08-30T05:48:29;7.85;;;6.20;;
75542;SDS011;64129;53.508;10.476;2023-08-30T05:50:56;9.82;;;7.75;;
75542;SDS011;64129;53.508;10.476;2023-08-30T05:53:23;12.18;;;7.38;;
75542;SDS011;64129;53.508;10.476;2023-08-30T05:55:50;12.20;;;8.18;;
75542;SDS011;64129;53.508;10.476;2023-08-30T05:58:17;9.68;;;7.07;;
75542;SDS011;64129;53.508;10.476;2023-08-30T06:00:44;11.55;;;7.88;;
75542;SDS011;64129;53.508;10.476;2023-08-30T06:03:11;13.60;;;7.18;;
75542;SDS011;64129;53.508;10.476;2023-08-30T06:05:38;10.88;;;6.72;;
75542;SDS011;64129;53.508;10.476;2023-08-30T06:08:04;8.57;;;6.75;;
75542;SDS011;64129;53.508;10.476;2023-08-30T06:10:31;9.82;;;7.18;;
75542;SDS011;64129;53.508;10.476;2023-08-30T06:12:57;9.88;;;6.28;;
75542;SDS011;64129;53.508;10.476;2023-08-30T06:15:24;8.52;;;6.55;;
75542;SDS011;64129;53.508;10.476;2023-08-30T06:17:50;7.45;;;6.25;;
75542;SDS011;64129;53.508;10.476;2023-08-30T06:20:17;7.95;;;6.05;;
75542;SDS011;64129;53.508;10.476;2023-08-30T06:22:43;9.27;;;6.47;;
75542;SDS011;64129;53.508;10.476;2023-08-30T06:25:11;8.07;;;6.25;;
75542;SDS011;64129;53.508;10.476;2023-08-30T06:27:41;7.32;;;5.97;;
75542;SDS011;64129;53.508;10.476;2023-08-30T06:30:10;8.27;;;6.40;;
75542;SDS011;64129;53.508;10.476;2023-08-30T06:32:37;10.02;;;6.60;;
75542;SDS011;64129;53.508;10.476;2023-08-30T06:35:03;6.38;;;5.65;;
75542;SDS011;64129;53.508;10.476;2023-08-30T06:37:30;6.65;;;5.90;;
75542;SDS011;64129;53.508;10.476;2023-08-30T06:39:57;7.30;;;5.57;;
75542;SDS011;64129;53.508;10.476;2023-08-30T06:42:23;7.00;;;6.05;;
75542;SDS011;64129;53.508;10.476;2023-08-30T06:44:51;8.18;;;6.63;;
75542;SDS011;64129;53.508;10.476;2023-08-30T06:47:18;8.38;;;5.80;;
75542;SDS011;64129;53.508;10.476;2023-08-30T06:49:44;7.45;;;5.57;;
75542;SDS011;64129;53.508;10.476;2023-08-30T06:52:11;7.50;;;5.55;;
75542;SDS011;64129;53.508;10.476;2023-08-30T06:54:37;6.30;;;5.53;;
75542;SDS011;64129;53.508;10.476;2023-08-30T06:57:04;5.53;;;4.95;;
75542;SDS011;64129;53.508;10.476;2023-08-30T06:59:33;6.05;;;4.90;;
75542;SDS011;64129;53.508;10.476;2023-08-30T07:01:59;5.78;;;5.28;;
75542;SDS011;64129;53.508;10.476;2023-08-30T07:04:26;8.30;;;4.82;;
75542;SDS011;64129;53.508;10.476;2023-08-30T07:06:52;8.20;;;5.05;;
75542;SDS011;64129;53.508;10.476;2023-08-30T07:09:19;5.03;;;4.30;;
75542;SDS011;64129;53.508;10.476;2023-08-30T07:11:47;4.78;;;4.35;;
75542;SDS011;64129;53.508;10.476;2023-08-30T07:14:14;5.20;;;4.70;;
75542;SDS011;64129;53.508;10.476;2023-08-30T07:16:40;5.50;;;5.00;;
75542;SDS011;64129;53.508;10.476;2023-08-30T07:19:07;5.85;;;4.90;;
75542;SDS011;64129;53.508;10.476;2023-08-30T07:21:34;5.82;;;5.05;;
75542;SDS011;64129;53.508;10.476;2023-08-30T07:24:05;5.28;;;4.22;;
75542;SDS011;64129;53.508;10.476;2023-08-30T07:26:33;7.68;;;4.95;;
75542;SDS011;64129;53.508;10.476;2023-08-30T07:28:59;4.28;;;3.88;;
75542;SDS011;64129;53.508;10.476;2023-08-30T07:31:26;4.32;;;3.90;;
75542;SDS011;64129;53.508;10.476;2023-08-30T07:33:52;4.38;;;3.75;;
75542;SDS011;64129;53.508;10.476;2023-08-30T07:36:19;5.38;;;4.65;;
75542;SDS011;64129;53.508;10.476;2023-08-30T07:38:47;5.20;;;4.72;;
75542;SDS011;64129;53.508;10.476;2023-08-30T07:41:14;5.75;;;4.90;;
75542;SDS011;64129;53.508;10.476;2023-08-30T07:43:40;4.63;;;3.95;;
75542;SDS011;64129;53.508;10.476;2023-08-30T07:46:07;5.30;;;3.83;;
75542;SDS011;64129;53.508;10.476;2023-08-30T07:48:34;4.30;;;3.90;;
75542;SDS011;64129;53.508;10.476;2023-08-30T07:51:01;4.50;;;4.10;;
75542;SDS011;64129;53.508;10.476;2023-08-30T07:53:28;3.92;;;3.50;;
75542;SDS011;64129;53.508;10.476;2023-08-30T07:55:54;6.22;;;4.10;;
75542;SDS011;64129;53.508;10.476;2023-08-30T07:58:21;5.00;;;3.55;;
75542;SDS011;64129;53.508;10.476;2023-08-30T08:00:50;4.65;;;3.60;;
75542;SDS011;64129;53.508;10.476;2023-08-30T08:03:19;4.35;;;3.88;;
75542;SDS011;64129;53.508;10.476;2023-08-30T08:05:47;4.88;;;3.30;;
75542;SDS011;64129;53.508;10.476;2023-08-30T08:08:13;3.75;;;3.45;;
75542;SDS011;64129;53.508;10.476;2023-08-30T08:10:41;3.55;;;3.25;;
75542;SDS011;64129;53.508;10.476;2023-08-30T08:13:08;4.20;;;3.58;;
75542;SDS011;64129;53.508;10.476;2023-08-30T08:15:35;3.53;;;3.22;;
75542;SDS011;64129;53.508;10.476;2023-08-30T08:18:01;3.75;;;3.40;;
75542;SDS011;64129;53.508;10.476;2023-08-30T08:20:28;4.00;;;3.00;;
75542;SDS011;64129;53.508;10.476;2023-08-30T08:22:55;4.38;;;3.50;;
75542;SDS011;64129;53.508;10.476;2023-08-30T08:25:22;4.18;;;3.85;;
75542;SDS011;64129;53.508;10.476;2023-08-30T08:27:50;3.58;;;3.22;;
75542;SDS011;64129;53.508;10.476;2023-08-30T08:30:17;3.22;;;2.80;;
75542;SDS011;64129;53.508;10.476;2023-08-30T08:32:45;5.00;;;3.03;;
75542;SDS011;64129;53.508;10.476;2023-08-30T08:35:12;4.35;;;3.08;;
75542;SDS011;64129;53.508;10.476;2023-08-30T08:37:38;3.95;;;3.40;;
75542;SDS011;64129;53.508;10.476;2023-08-30T08:40:05;3.10;;;2.83;;
75542;SDS011;64129;53.508;10.476;2023-08-30T08:42:35;3.53;;;3.22;;
75542;SDS011;64129;53.508;10.476;2023-08-30T08:45:02;5.03;;;4.05;;
75542;SDS011;64129;53.508;10.476;2023-08-30T08:47:30;3.33;;;2.80;;
75542;SDS011;64129;53.508;10.476;2023-08-30T08:49:57;3.75;;;3.40;;
75542;SDS011;64129;53.508;10.476;2023-08-30T08:52:25;3.40;;;3.10;;
75542;SDS011;64129;53.508;10.476;2023-08-30T08:54:55;5.15;;;3.83;;
75542;SDS011;64129;53.508;10.476;2023-08-30T08:57:21;3.22;;;2.92;;
75542;SDS011;64129;53.508;10.476;2023-08-30T08:59:48;3.20;;;2.90;;
75542;SDS011;64129;53.508;10.476;2023-08-30T09:02:16;3.42;;;3.13;;
75542;SDS011;64129;53.508;10.476;2023-08-30T09:04:43;5.03;;;3.25;;
75542;SDS011;64129;53.508;10.476;2023-08-30T09:07:10;4.18;;;3.78;;
75542;SDS011;64129;53.508;10.476;2023-08-30T09:09:37;3.88;;;3.33;;
75542;SDS011;64129;53.508;10.476;2023-08-30T09:12:04;4.30;;;3.88;;
75542;SDS011;64129;53.508;10.476;2023-08-30T09:14:30;4.97;;;3.75;;
75542;SDS011;64129;53.508;10.476;2023-08-30T09:16:57;4.30;;;3.63;;
75542;SDS011;64129;53.508;10.476;2023-08-30T09:19:26;4.90;;;3.72;;
75542;SDS011;64129;53.508;10.476;2023-08-30T09:21:54;4.95;;;3.65;;
75542;SDS011;64129;53.508;10.476;2023-08-30T09:26:52;4.05;;;3.50;;
75542;SDS011;64129;53.508;10.476;2023-08-30T09:29:20;4.10;;;3.22;;
75542;SDS011;64129;53.508;10.476;2023-08-30T09:31:52;4.85;;;3.80;;
75542;SDS011;64129;53.508;10.476;2023-08-30T09:34:25;4.07;;;3.72;;
75542;SDS011;64129;53.508;10.476;2023-08-30T09:36:53;3.15;;;2.85;;
75542;SDS011;64129;53.508;10.476;2023-08-30T09:39:20;4.53;;;3.80;;
75542;SDS011;64129;53.508;10.476;2023-08-30T09:41:48;4.38;;;3.83;;
75542;SDS011;64129;53.508;10.476;2023-08-30T09:44:18;4.30;;;3.72;;
75542;SDS011;64129;53.508;10.476;2023-08-30T09:46:50;3.38;;;3.08;;
75542;SDS011;64129;53.508;10.476;2023-08-30T09:49:20;3.10;;;2.85;;
75542;SDS011;64129;53.508;10.476;2023-08-30T09:51:49;5.40;;;4.03;;
75542;SDS011;64129;53.508;10.476;2023-08-30T09:54:19;2.95;;;2.72;;
75542;SDS011;64129;53.508;10.476;2023-08-30T09:56:49;4.78;;;3.50;;
75542;SDS011;64129;53.508;10.476;2023-08-30T09:59:18;5.00;;;3.15;;
75542;SDS011;64129;53.508;10.476;2023-08-30T10:01:46;4.15;;;2.70;;
75542;SDS011;64129;53.508;10.476;2023-08-30T10:04:18;2.72;;;2.00;;
75542;SDS011;64129;53.508;10.476;2023-08-30T10:06:45;2.67;;;2.47;;
75542;SDS011;64129;53.508;10.476;2023-08-30T10:09:13;3.33;;;3.03;;
75542;SDS011;64129;53.508;10.476;2023-08-30T10:11:42;4.03;;;3.17;;
75542;SDS011;64129;53.508;10.476;2023-08-30T10:14:11;3.88;;;3.47;;
75542;SDS011;64129;53.508;10.476;2023-08-30T10:16:46;4.85;;;3.80;;
75542;SDS011;64129;53.508;10.476;2023-08-30T10:19:14;6.45;;;4.65;;
75542;SDS011;64129;53.508;10.476;2023-08-30T10:21:43;5.03;;;4.20;;
75542;SDS011;64129;53.508;10.476;2023-08-30T10:24:19;4.75;;;3.10;;
75542;SDS011;64129;53.508;10.476;2023-08-30T10:26:56;4.95;;;3.60;;
75542;SDS011;64129;53.508;10.476;2023-08-30T10:29:24;4.10;;;3.70;;
75542;SDS011;64129;53.508;10.476;2023-08-30T10:31:53;4.88;;;3.50;;
75542;SDS011;64129;53.508;10.476;2023-08-30T10:34:20;4.60;;;3.72;;
75542;SDS011;64129;53.508;10.476;2023-08-30T10:36:58;5.13;;;4.28;;
75542;SDS011;64129;53.508;10.476;2023-08-30T10:39:38;4.53;;;3.25;;
75542;SDS011;64129;53.508;10.476;2023-08-30T10:42:09;4.05;;;3.65;;
75542;SDS011;64129;53.508;10.476;2023-08-30T10:44:57;4.22;;;3.63;;
75542;SDS011;64129;53.508;10.476;2023-08-30T10:47:36;5.60;;;3.70;;
75542;SDS011;64129;53.508;10.476;2023-08-30T10:50:07;6.03;;;4.53;;
75542;SDS011;64129;53.508;10.476;2023-08-30T10:52:35;5.20;;;4.43;;
75542;SDS011;64129;53.508;10.476;2023-08-30T10:55:05;5.20;;;3.85;;
75542;SDS011;64129;53.508;10.476;2023-08-30T10:57:34;4.97;;;3.97;;
75542;SDS011;64129;53.508;10.476;2023-08-30T11:02:38;4.90;;;4.38;;
75542;SDS011;64129;53.508;10.476;2023-08-30T11:05:09;5.82;;;5.15;;
75542;SDS011;64129;53.508;10.476;2023-08-30T11:07:35;6.30;;;4.70;;
75542;SDS011;64129;53.508;10.476;2023-08-30T11:10:04;6.20;;;4.60;;
75542;SDS011;64129;53.508;10.476;2023-08-30T11:12:33;5.57;;;4.50;;
75542;SDS011;64129;53.508;10.476;2023-08-30T11:14:59;5.88;;;5.20;;
75542;SDS011;64129;53.508;10.476;2023-08-30T11:17:26;5.20;;;4.70;;
75542;SDS011;64129;53.508;10.476;2023-08-30T11:20:10;6.13;;;5.50;;
75542;SDS011;64129;53.508;10.476;2023-08-30T11:25:08;5.47;;;4.88;;
75542;SDS011;64129;53.508;10.476;2023-08-30T11:27:36;6.28;;;5.25;;
75542;SDS011;64129;53.508;10.476;2023-08-30T11:30:05;5.47;;;4.70;;
75542;SDS011;64129;53.508;10.476;2023-08-30T11:32:33;5.78;;;4.70;;
75542;SDS011;64129;53.508;10.476;2023-08-30T11:35:09;5.80;;;5.03;;
75542;SDS011;64129;53.508;10.476;2023-08-30T11:37:35;5.97;;;5.03;;
75542;SDS011;64129;53.508;10.476;2023-08-30T11:40:02;6.00;;;5.50;;
75542;SDS011;64129;53.508;10.476;2023-08-30T11:42:30;5.82;;;5.20;;
75542;SDS011;64129;53.508;10.476;2023-08-30T11:45:00;6.03;;;5.18;;
75542;SDS011;64129;53.508;10.476;2023-08-30T11:47:27;5.07;;;4.55;;
75542;SDS011;64129;53.508;10.476;2023-08-30T11:49:55;5.10;;;4.60;;
75542;SDS011;64129;53.508;10.476;2023-08-30T11:52:23;5.20;;;4.40;;
75542;SDS011;64129;53.508;10.476;2023-08-30T11:57:17;5.00;;;4.05;;
75542;SDS011;64129;53.508;10.476;2023-08-30T11:59:44;5.93;;;5.32;;
75542;SDS011;64129;53.508;10.476;2023-08-30T12:02:11;7.35;;;4.45;;
75542;SDS011;64129;53.508;10.476;2023-08-30T12:04:43;5.50;;;3.85;;
75542;SDS011;64129;53.508;10.476;2023-08-30T12:07:24;5.93;;;4.57;;
75542;SDS011;64129;53.508;10.476;2023-08-30T12:09:52;5.10;;;4.45;;
75542;SDS011;64129;53.508;10.476;2023-08-30T12:12:19;5.32;;;4.55;;
75542;SDS011;64129;53.508;10.476;2023-08-30T12:14:56;6.13;;;4.35;;
75542;SDS011;64129;53.508;10.476;2023-08-30T12:17:23;6.13;;;4.82;;
75542;SDS011;64129;53.508;10.476;2023-08-30T12:19:56;5.47;;;4.20;;
75542;SDS011;64129;53.508;10.476;2023-08-30T12:22:23;5.40;;;4.90;;
75542;SDS011;64129;53.508;10.476;2023-08-30T12:24:49;4.90;;;3.80;;
75542;SDS011;64129;53.508;10.476;2023-08-30T12:27:16;5.03;;;4.10;;
75542;SDS011;64129;53.508;10.476;2023-08-30T12:29:42;4.32;;;3.55;;
75542;SDS011;64129;53.508;10.476;2023-08-30T12:32:09;5.53;;;4.70;;
75542;SDS011;64129;53.508;10.476;2023-08-30T12:34:35;7.60;;;5.05;;
75542;SDS011;64129;53.508;10.476;2023-08-30T12:37:03;5.88;;;4.80;;
75542;SDS011;64129;53.508;10.476;2023-08-30T12:39:30;5.18;;;4.45;;
75542;SDS011;64129;53.508;10.476;2023-08-30T12:41:57;5.47;;;4.93;;
75542;SDS011;64129;53.508;10.476;2023-08-30T12:44:23;5.80;;;4.88;;
75542;SDS011;64129;53.508;10.476;2023-08-30T12:46:50;3.65;;;3.30;;
75542;SDS011;64129;53.508;10.476;2023-08-30T12:49:16;7.38;;;4.47;;
75542;SDS011;64129;53.508;10.476;2023-08-30T12:51:43;4.07;;;3.67;;
75542;SDS011;64129;53.508;10.476;2023-08-30T12:54:09;4.20;;;3.60;;
75542;SDS011;64129;53.508;10.476;2023-08-30T12:56:36;5.85;;;3.72;;
75542;SDS011;64129;53.508;10.476;2023-08-30T12:59:02;3.88;;;3.30;;
75542;SDS011;64129;53.508;10.476;2023-08-30T13:01:29;5.20;;;3.90;;
75542;SDS011;64129;53.508;10.476;2023-08-30T13:03:56;4.55;;;3.92;;
75542;SDS011;64129;53.508;10.476;2023-08-30T13:06:22;4.55;;;3.35;;
75542;SDS011;64129;53.508;10.476;2023-08-30T13:08:49;4.00;;;3.47;;
75542;SDS011;64129;53.508;10.476;2023-08-30T13:11:15;4.00;;;3.03;;
75542;SDS011;64129;53.508;10.476;2023-08-30T13:13:42;5.18;;;3.17;;
75542;SDS011;64129;53.508;10.476;2023-08-30T13:16:08;4.57;;;2.97;;
75542;SDS011;64129;53.508;10.476;2023-08-30T13:18:35;2.22;;;1.95;;
75542;SDS011;64129;53.508;10.476;2023-08-30T13:21:01;3.45;;;2.85;;
75542;SDS011;64129;53.508;10.476;2023-08-30T13:23:28;3.90;;;2.72;;
75542;SDS011;64129;53.508;10.476;2023-08-30T13:25:54;3.30;;;2.92;;
75542;SDS011;64129;53.508;10.476;2023-08-30T13:28:21;2.90;;;2.63;;
75542;SDS011;64129;53.508;10.476;2023-08-30T13:30:47;3.25;;;2.72;;
75542;SDS011;64129;53.508;10.476;2023-08-30T13:33:16;3.90;;;2.38;;
75542;SDS011;64129;53.508;10.476;2023-08-30T13:35:42;4.85;;;2.72;;
75542;SDS011;64129;53.508;10.476;2023-08-30T13:38:09;3.90;;;2.45;;
75542;SDS011;64129;53.508;10.476;2023-08-30T13:40:35;4.97;;;3.17;;
75542;SDS011;64129;53.508;10.476;2023-08-30T13:43:02;5.45;;;3.13;;
75542;SDS011;64129;53.508;10.476;2023-08-30T13:45:29;3.63;;;2.65;;
75542;SDS011;64129;53.508;10.476;2023-08-30T13:47:55;3.35;;;2.75;;
75542;SDS011;64129;53.508;10.476;2023-08-30T13:50:22;5.25;;;2.58;;
75542;SDS011;64129;53.508;10.476;2023-08-30T13:52:48;2.55;;;2.35;;
75542;SDS011;64129;53.508;10.476;2023-08-30T13:55:15;5.13;;;2.60;;
75542;SDS011;64129;53.508;10.476;2023-08-30T13:57:42;3.92;;;2.92;;
75542;SDS011;64129;53.508;10.476;2023-08-30T14:00:08;2.70;;;2.22;;
75542;SDS011;64129;53.508;10.476;2023-08-30T14:02:36;4.55;;;2.90;;
75542;SDS011;64129;53.508;10.476;2023-08-30T14:05:03;3.67;;;2.65;;
75542;SDS011;64129;53.508;10.476;2023-08-30T14:07:29;2.88;;;2.53;;
75542;SDS011;64129;53.508;10.476;2023-08-30T14:09:56;3.60;;;2.65;;
75542;SDS011;64129;53.508;10.476;2023-08-30T14:12:24;3.15;;;2.60;;
75542;SDS011;64129;53.508;10.476;2023-08-30T14:14:50;4.28;;;3.35;;
75542;SDS011;64129;53.508;10.476;2023-08-30T14:17:18;3.13;;;2.83;;
75542;SDS011;64129;53.508;10.476;2023-08-30T14:19:45;4.38;;;2.95;;
75542;SDS011;64129;53.508;10.476;2023-08-30T14:22:12;3.13;;;2.47;;
75542;SDS011;64129;53.508;10.476;2023-08-30T14:24:39;2.78;;;2.30;;
75542;SDS011;64129;53.508;10.476;2023-08-30T14:27:17;2.92;;;2.70;;
75542;SDS011;64129;53.508;10.476;2023-08-30T14:29:43;3.75;;;2.72;;
75542;SDS011;64129;53.508;10.476;2023-08-30T14:32:10;5.93;;;3.08;;
75542;SDS011;64129;53.508;10.476;2023-08-30T14:34:37;2.33;;;2.13;;
75542;SDS011;64129;53.508;10.476;2023-08-30T14:37:03;4.25;;;2.60;;
75542;SDS011;64129;53.508;10.476;2023-08-30T14:39:30;3.10;;;2.53;;
75542;SDS011;64129;53.508;10.476;2023-08-30T14:41:56;2.72;;;2.20;;
75542;SDS011;64129;53.508;10.476;2023-08-30T14:44:23;4.32;;;2.50;;
75542;SDS011;64129;53.508;10.476;2023-08-30T14:46:52;4.70;;;3.05;;
75542;SDS011;64129;53.508;10.476;2023-08-30T14:49:19;3.38;;;3.08;;
75542;SDS011;64129;53.508;10.476;2023-08-30T14:51:46;3.88;;;2.60;;
75542;SDS011;64129;53.508;10.476;2023-08-30T14:54:13;3.60;;;2.45;;